sensor_id;sensor_type;location;lat;lon;timestamp;P1;durP1;ratioP1;P2;durP2;ratioP2
41514;SDS011;27247;48.020;16.720;2023-04-15T00:03:26;2.22;;;1.20;;
41514;SDS011;27247;48.020;16.720;2023-04-15T00:07:38;1.23;;;0.80;;
41514;SDS011;27247;48.020;16.720;2023-04-15T00:11:49;0.80;;;0.52;;
41514;SDS011;27247;48.020;16.720;2023-04-15T00:15:59;0.60;;;0.60;;
41514;SDS011;27247;48.020;16.720;2023-04-15T00:20:10;0.30;;;0.30;;
41514;SDS011;27247;48.020;16.720;2023-04-15T00:24:21;0.68;;;0.50;;
41514;SDS011;27247;48.020;16.720;2023-04-15T00:28:32;1.27;;;0.50;;
41514;SDS011;27247;48.020;16.720;2023-04-15T00:32:42;1.27;;;0.50;;
41514;SDS011;27247;48.020;16.720;2023-04-15T00:36:53;0.80;;;0.73;;
41514;SDS011;27247;48.020;16.720;2023-04-15T00:41:03;1.93;;;0.47;;
41514;SDS011;27247;48.020;16.720;2023-04-15T00:45:14;0.73;;;0.38;;
41514;SDS011;27247;48.020;16.720;2023-04-15T00:49:24;0.30;;;0.30;;
41514;SDS011;27247;48.020;16.720;2023-04-15T00:53:36;0.60;;;0.45;;
41514;SDS011;27247;48.020;16.720;2023-04-15T00:57:46;0.40;;;0.40;;
41514;SDS011;27247;48.020;16.720;2023-04-15T01:01:57;0.40;;;0.30;;
41514;SDS011;27247;48.020;16.720;2023-04-15T01:06:08;0.45;;;0.40;;
41514;SDS011;27247;48.020;16.720;2023-04-15T01:10:18;0.77;;;0.70;;
41514;SDS011;27247;48.020;16.720;2023-04-15T01:14:29;1.33;;;0.60;;
41514;SDS011;27247;48.020;16.720;2023-04-15T01:18:39;0.65;;;0.55;;
41514;SDS011;27247;48.020;16.720;2023-04-15T01:22:50;1.23;;;0.70;;
41514;SDS011;27247;48.020;16.720;2023-04-15T01:27:01;0.45;;;0.43;;
41514;SDS011;27247;48.020;16.720;2023-04-15T01:31:14;0.88;;;0.63;;
41514;SDS011;27247;48.020;16.720;2023-04-15T01:35:24;0.68;;;0.60;;
41514;SDS011;27247;48.020;16.720;2023-04-15T01:39:36;0.80;;;0.68;;
41514;SDS011;27247;48.020;16.720;2023-04-15T01:43:46;0.65;;;0.60;;
41514;SDS011;27247;48.020;16.720;2023-04-15T01:47:56;1.10;;;0.75;;
41514;SDS011;27247;48.020;16.720;2023-04-15T01:52:06;0.75;;;0.75;;
41514;SDS011;27247;48.020;16.720;2023-04-15T01:56:18;0.70;;;0.70;;
41514;SDS011;27247;48.020;16.720;2023-04-15T02:00:28;1.05;;;0.80;;
41514;SDS011;27247;48.020;16.720;2023-04-15T02:04:39;1.15;;;1.05;;
41514;SDS011;27247;48.020;16.720;2023-04-15T02:08:49;1.67;;;0.80;;
41514;SDS011;27247;48.020;16.720;2023-04-15T02:13:00;0.80;;;0.80;;
41514;SDS011;27247;48.020;16.720;2023-04-15T02:17:10;1.13;;;1.02;;
41514;SDS011;27247;48.020;16.720;2023-04-15T02:21:21;1.80;;;1.47;;
41514;SDS011;27247;48.020;16.720;2023-04-15T02:25:31;2.00;;;1.80;;
41514;SDS011;27247;48.020;16.720;2023-04-15T02:29:42;3.35;;;2.47;;
41514;SDS011;27247;48.020;16.720;2023-04-15T02:33:53;3.95;;;2.58;;
41514;SDS011;27247;48.020;16.720;2023-04-15T02:38:03;3.67;;;2.33;;
41514;SDS011;27247;48.020;16.720;2023-04-15T02:42:14;6.07;;;2.90;;
41514;SDS011;27247;48.020;16.720;2023-04-15T02:46:24;3.80;;;3.13;;
41514;SDS011;27247;48.020;16.720;2023-04-15T02:50:34;3.95;;;3.13;;
41514;SDS011;27247;48.020;16.720;2023-04-15T02:54:46;4.15;;;3.28;;
41514;SDS011;27247;48.020;16.720;2023-04-15T02:58:57;5.03;;;3.20;;
41514;SDS011;27247;48.020;16.720;2023-04-15T03:03:07;3.92;;;3.08;;
41514;SDS011;27247;48.020;16.720;2023-04-15T03:07:18;4.13;;;3.20;;
41514;SDS011;27247;48.020;16.720;2023-04-15T03:11:28;4.97;;;3.63;;
41514;SDS011;27247;48.020;16.720;2023-04-15T03:15:39;4.07;;;3.00;;
41514;SDS011;27247;48.020;16.720;2023-04-15T03:19:49;4.03;;;3.20;;
41514;SDS011;27247;48.020;16.720;2023-04-15T03:23:59;3.87;;;2.80;;
41514;SDS011;27247;48.020;16.720;2023-04-15T03:28:09;4.27;;;3.23;;
41514;SDS011;27247;48.020;16.720;2023-04-15T03:32:20;4.90;;;3.50;;
41514;SDS011;27247;48.020;16.720;2023-04-15T03:36:30;3.70;;;2.93;;
41514;SDS011;27247;48.020;16.720;2023-04-15T03:40:42;5.20;;;3.55;;
41514;SDS011;27247;48.020;16.720;2023-04-15T03:44:52;4.07;;;3.13;;
41514;SDS011;27247;48.020;16.720;2023-04-15T03:49:03;4.30;;;3.35;;
41514;SDS011;27247;48.020;16.720;2023-04-15T03:53:16;10.00;;;5.38;;
41514;SDS011;27247;48.020;16.720;2023-04-15T03:57:26;14.83;;;5.03;;
41514;SDS011;27247;48.020;16.720;2023-04-15T04:01:36;16.85;;;8.07;;
41514;SDS011;27247;48.020;16.720;2023-04-15T04:05:47;6.22;;;3.92;;
41514;SDS011;27247;48.020;16.720;2023-04-15T04:09:57;4.72;;;3.53;;
41514;SDS011;27247;48.020;16.720;2023-04-15T04:14:07;6.43;;;3.67;;
41514;SDS011;27247;48.020;16.720;2023-04-15T04:18:18;4.47;;;3.20;;
41514;SDS011;27247;48.020;16.720;2023-04-15T04:22:28;5.72;;;3.70;;
41514;SDS011;27247;48.020;16.720;2023-04-15T04:26:38;5.82;;;3.70;;
41514;SDS011;27247;48.020;16.720;2023-04-15T04:30:49;6.38;;;4.47;;
41514;SDS011;27247;48.020;16.720;2023-04-15T04:35:00;5.22;;;3.97;;
41514;SDS011;27247;48.020;16.720;2023-04-15T04:39:10;5.07;;;4.15;;
41514;SDS011;27247;48.020;16.720;2023-04-15T04:43:20;6.30;;;4.10;;
41514;SDS011;27247;48.020;16.720;2023-04-15T04:47:31;4.82;;;4.05;;
41514;SDS011;27247;48.020;16.720;2023-04-15T04:51:41;5.40;;;4.30;;
41514;SDS011;27247;48.020;16.720;2023-04-15T04:55:51;7.18;;;4.53;;
41514;SDS011;27247;48.020;16.720;2023-04-15T05:00:02;6.45;;;4.45;;
41514;SDS011;27247;48.020;16.720;2023-04-15T05:04:13;6.55;;;4.97;;
41514;SDS011;27247;48.020;16.720;2023-04-15T05:08:24;5.32;;;4.05;;
41514;SDS011;27247;48.020;16.720;2023-04-15T05:12:35;6.70;;;4.70;;
41514;SDS011;27247;48.020;16.720;2023-04-15T05:16:46;6.75;;;5.10;;
41514;SDS011;27247;48.020;16.720;2023-04-15T05:20:56;5.17;;;4.13;;
41514;SDS011;27247;48.020;16.720;2023-04-15T05:25:08;6.95;;;4.63;;
41514;SDS011;27247;48.020;16.720;2023-04-15T05:29:18;6.13;;;5.07;;
41514;SDS011;27247;48.020;16.720;2023-04-15T05:33:29;7.28;;;5.35;;
41514;SDS011;27247;48.020;16.720;2023-04-15T05:37:39;6.97;;;5.20;;
41514;SDS011;27247;48.020;16.720;2023-04-15T05:41:50;6.37;;;4.87;;
41514;SDS011;27247;48.020;16.720;2023-04-15T05:46:00;5.85;;;5.15;;
41514;SDS011;27247;48.020;16.720;2023-04-15T05:50:10;5.80;;;4.40;;
41514;SDS011;27247;48.020;16.720;2023-04-15T05:54:21;6.43;;;4.50;;
41514;SDS011;27247;48.020;16.720;2023-04-15T05:58:32;6.40;;;4.70;;
41514;SDS011;27247;48.020;16.720;2023-04-15T06:02:42;6.83;;;5.03;;
41514;SDS011;27247;48.020;16.720;2023-04-15T06:06:52;7.35;;;5.25;;
41514;SDS011;27247;48.020;16.720;2023-04-15T06:11:03;4.90;;;3.93;;
41514;SDS011;27247;48.020;16.720;2023-04-15T06:15:13;5.22;;;3.72;;
41514;SDS011;27247;48.020;16.720;2023-04-15T06:19:24;4.90;;;3.47;;
41514;SDS011;27247;48.020;16.720;2023-04-15T06:23:35;4.70;;;3.10;;
41514;SDS011;27247;48.020;16.720;2023-04-15T06:27:46;3.78;;;3.00;;
41514;SDS011;27247;48.020;16.720;2023-04-15T06:31:57;6.40;;;3.90;;
41514;SDS011;27247;48.020;16.720;2023-04-15T06:36:07;4.57;;;2.83;;
41514;SDS011;27247;48.020;16.720;2023-04-15T06:40:17;5.37;;;3.60;;
41514;SDS011;27247;48.020;16.720;2023-04-15T06:44:28;5.03;;;4.10;;
41514;SDS011;27247;48.020;16.720;2023-04-15T06:48:38;3.92;;;3.42;;
41514;SDS011;27247;48.020;16.720;2023-04-15T06:52:49;4.78;;;3.22;;
41514;SDS011;27247;48.020;16.720;2023-04-15T06:56:59;4.22;;;3.28;;
41514;SDS011;27247;48.020;16.720;2023-04-15T07:01:10;4.82;;;3.80;;
41514;SDS011;27247;48.020;16.720;2023-04-15T07:05:21;6.05;;;3.50;;
41514;SDS011;27247;48.020;16.720;2023-04-15T07:09:31;3.97;;;2.38;;
41514;SDS011;27247;48.020;16.720;2023-04-15T07:13:43;4.30;;;3.70;;
41514;SDS011;27247;48.020;16.720;2023-04-15T07:17:53;4.25;;;2.88;;
41514;SDS011;27247;48.020;16.720;2023-04-15T07:22:03;3.63;;;2.80;;
41514;SDS011;27247;48.020;16.720;2023-04-15T07:26:14;3.28;;;2.45;;
41514;SDS011;27247;48.020;16.720;2023-04-15T07:30:24;3.35;;;2.35;;
41514;SDS011;27247;48.020;16.720;2023-04-15T07:34:35;3.80;;;2.95;;
41514;SDS011;27247;48.020;16.720;2023-04-15T07:38:45;4.70;;;3.00;;
41514;SDS011;27247;48.020;16.720;2023-04-15T07:42:56;4.90;;;3.25;;
41514;SDS011;27247;48.020;16.720;2023-04-15T07:47:07;4.07;;;3.58;;
41514;SDS011;27247;48.020;16.720;2023-04-15T07:51:20;1.63;;;1.53;;
41514;SDS011;27247;48.020;16.720;2023-04-15T07:55:31;2.17;;;1.98;;
41514;SDS011;27247;48.020;16.720;2023-04-15T07:59:41;2.63;;;1.98;;
41514;SDS011;27247;48.020;16.720;2023-04-15T08:03:52;2.90;;;2.23;;
41514;SDS011;27247;48.020;16.720;2023-04-15T08:08:02;1.90;;;1.30;;
41514;SDS011;27247;48.020;16.720;2023-04-15T08:12:12;1.95;;;1.38;;
41514;SDS011;27247;48.020;16.720;2023-04-15T08:16:24;6.72;;;3.85;;
41514;SDS011;27247;48.020;16.720;2023-04-15T08:20:36;3.83;;;2.47;;
41514;SDS011;27247;48.020;16.720;2023-04-15T08:24:47;3.50;;;2.92;;
41514;SDS011;27247;48.020;16.720;2023-04-15T08:28:57;1.88;;;1.70;;
41514;SDS011;27247;48.020;16.720;2023-04-15T08:33:08;2.65;;;1.58;;
41514;SDS011;27247;48.020;16.720;2023-04-15T08:37:18;1.05;;;0.98;;
41514;SDS011;27247;48.020;16.720;2023-04-15T08:41:31;1.20;;;1.10;;
41514;SDS011;27247;48.020;16.720;2023-04-15T08:45:49;2.20;;;1.30;;
41514;SDS011;27247;48.020;16.720;2023-04-15T08:50:01;0.98;;;0.85;;
41514;SDS011;27247;48.020;16.720;2023-04-15T08:54:13;1.48;;;1.33;;
41514;SDS011;27247;48.020;16.720;2023-04-15T08:58:23;1.50;;;1.30;;
41514;SDS011;27247;48.020;16.720;2023-04-15T09:02:35;1.17;;;0.80;;
41514;SDS011;27247;48.020;16.720;2023-04-15T09:06:46;1.08;;;0.60;;
41514;SDS011;27247;48.020;16.720;2023-04-15T09:10:57;1.13;;;0.80;;
41514;SDS011;27247;48.020;16.720;2023-04-15T09:15:07;0.88;;;0.63;;
41514;SDS011;27247;48.020;16.720;2023-04-15T09:19:22;10.65;;;1.02;;
41514;SDS011;27247;48.020;16.720;2023-04-15T09:23:33;2.45;;;0.68;;
41514;SDS011;27247;48.020;16.720;2023-04-15T09:27:48;0.70;;;0.60;;
41514;SDS011;27247;48.020;16.720;2023-04-15T09:32:10;0.65;;;0.60;;
41514;SDS011;27247;48.020;16.720;2023-04-15T09:36:25;1.95;;;0.50;;
41514;SDS011;27247;48.020;16.720;2023-04-15T09:40:40;0.70;;;0.45;;
41514;SDS011;27247;48.020;16.720;2023-04-15T09:44:51;0.40;;;0.40;;
41514;SDS011;27247;48.020;16.720;2023-04-15T09:49:08;0.55;;;0.40;;
41514;SDS011;27247;48.020;16.720;2023-04-15T09:53:20;3.20;;;0.30;;
41514;SDS011;27247;48.020;16.720;2023-04-15T09:57:35;27.25;;;2.33;;
41514;SDS011;27247;48.020;16.720;2023-04-15T10:01:46;60.72;;;5.93;;
41514;SDS011;27247;48.020;16.720;2023-04-15T10:05:57;7.22;;;1.15;;
41514;SDS011;27247;48.020;16.720;2023-04-15T10:10:09;0.50;;;0.30;;
41514;SDS011;27247;48.020;16.720;2023-04-15T10:14:20;2.00;;;0.20;;
41514;SDS011;27247;48.020;16.720;2023-04-15T10:18:33;0.88;;;0.22;;
41514;SDS011;27247;48.020;16.720;2023-04-15T10:22:45;0.73;;;0.63;;
41514;SDS011;27247;48.020;16.720;2023-04-15T10:26:55;0.90;;;0.50;;
41514;SDS011;27247;48.020;16.720;2023-04-15T10:31:07;1.92;;;0.30;;
41514;SDS011;27247;48.020;16.720;2023-04-15T10:35:21;0.40;;;0.40;;
41514;SDS011;27247;48.020;16.720;2023-04-15T10:48:02;0.25;;;0.20;;
41514;SDS011;27247;48.020;16.720;2023-04-15T10:52:16;0.38;;;0.30;;
41514;SDS011;27247;48.020;16.720;2023-04-15T10:56:31;0.30;;;0.10;;
41514;SDS011;27247;48.020;16.720;2023-04-15T11:00:43;0.20;;;0.20;;
41514;SDS011;27247;48.020;16.720;2023-04-15T11:05:01;1.13;;;0.73;;
41514;SDS011;27247;48.020;16.720;2023-04-15T11:09:29;2.95;;;1.02;;
41514;SDS011;27247;48.020;16.720;2023-04-15T11:13:51;0.85;;;0.60;;
41514;SDS011;27247;48.020;16.720;2023-04-15T11:22:24;1.05;;;0.47;;
41514;SDS011;27247;48.020;16.720;2023-04-15T11:26:34;0.30;;;0.30;;
41514;SDS011;27247;48.020;16.720;2023-04-15T11:30:44;0.23;;;0.20;;
41514;SDS011;27247;48.020;16.720;2023-04-15T11:34:55;0.27;;;0.20;;
41514;SDS011;27247;48.020;16.720;2023-04-15T11:39:05;0.95;;;0.30;;
41514;SDS011;27247;48.020;16.720;2023-04-15T11:43:17;0.20;;;0.20;;
41514;SDS011;27247;48.020;16.720;2023-04-15T11:47:30;2.55;;;0.73;;
41514;SDS011;27247;48.020;16.720;2023-04-15T11:51:40;1.10;;;0.50;;
41514;SDS011;27247;48.020;16.720;2023-04-15T11:55:51;0.52;;;0.20;;
41514;SDS011;27247;48.020;16.720;2023-04-15T12:00:03;0.40;;;0.30;;
41514;SDS011;27247;48.020;16.720;2023-04-15T12:04:14;2.47;;;0.30;;
41514;SDS011;27247;48.020;16.720;2023-04-15T12:13:15;0.10;;;0.10;;
41514;SDS011;27247;48.020;16.720;2023-04-15T12:17:26;0.17;;;0.17;;
41514;SDS011;27247;48.020;16.720;2023-04-15T12:21:38;0.50;;;0.30;;
41514;SDS011;27247;48.020;16.720;2023-04-15T12:25:50;0.38;;;0.20;;
41514;SDS011;27247;48.020;16.720;2023-04-15T12:30:04;0.40;;;0.20;;
41514;SDS011;27247;48.020;16.720;2023-04-15T12:34:17;0.30;;;0.30;;
41514;SDS011;27247;48.020;16.720;2023-04-15T12:38:34;1.10;;;0.30;;
41514;SDS011;27247;48.020;16.720;2023-04-15T12:42:44;0.40;;;0.30;;
41514;SDS011;27247;48.020;16.720;2023-04-15T12:46:55;1.88;;;0.90;;
41514;SDS011;27247;48.020;16.720;2023-04-15T12:51:06;1.05;;;0.70;;
41514;SDS011;27247;48.020;16.720;2023-04-15T12:55:16;1.23;;;0.70;;
41514;SDS011;27247;48.020;16.720;2023-04-15T12:59:27;0.93;;;0.65;;
41514;SDS011;27247;48.020;16.720;2023-04-15T13:03:37;0.82;;;0.50;;
41514;SDS011;27247;48.020;16.720;2023-04-15T13:07:48;0.40;;;0.30;;
41514;SDS011;27247;48.020;16.720;2023-04-15T13:11:58;0.53;;;0.50;;
41514;SDS011;27247;48.020;16.720;2023-04-15T13:16:09;0.63;;;0.60;;
41514;SDS011;27247;48.020;16.720;2023-04-15T13:20:19;0.30;;;0.30;;
41514;SDS011;27247;48.020;16.720;2023-04-15T13:24:30;0.38;;;0.30;;
41514;SDS011;27247;48.020;16.720;2023-04-15T13:28:40;1.02;;;0.35;;
41514;SDS011;27247;48.020;16.720;2023-04-15T13:32:51;0.37;;;0.30;;
41514;SDS011;27247;48.020;16.720;2023-04-15T13:37:08;0.20;;;0.10;;
41514;SDS011;27247;48.020;16.720;2023-04-15T13:41:19;0.40;;;0.35;;
41514;SDS011;27247;48.020;16.720;2023-04-15T13:45:30;0.10;;;0.10;;
41514;SDS011;27247;48.020;16.720;2023-04-15T13:49:40;0.30;;;0.30;;
41514;SDS011;27247;48.020;16.720;2023-04-15T13:53:52;1.33;;;0.30;;
41514;SDS011;27247;48.020;16.720;2023-04-15T13:58:02;0.43;;;0.40;;
41514;SDS011;27247;48.020;16.720;2023-04-15T14:02:12;0.57;;;0.10;;
41514;SDS011;27247;48.020;16.720;2023-04-15T14:06:23;1.63;;;0.30;;
41514;SDS011;27247;48.020;16.720;2023-04-15T14:10:33;1.42;;;0.30;;
41514;SDS011;27247;48.020;16.720;2023-04-15T14:14:44;1.42;;;0.45;;
41514;SDS011;27247;48.020;16.720;2023-04-15T14:18:55;0.40;;;0.40;;
41514;SDS011;27247;48.020;16.720;2023-04-15T14:23:05;0.30;;;0.30;;
41514;SDS011;27247;48.020;16.720;2023-04-15T14:27:16;1.75;;;0.30;;
41514;SDS011;27247;48.020;16.720;2023-04-15T14:31:26;0.20;;;0.17;;
41514;SDS011;27247;48.020;16.720;2023-04-15T14:35:37;0.40;;;0.17;;
41514;SDS011;27247;48.020;16.720;2023-04-15T14:39:48;0.35;;;0.10;;
41514;SDS011;27247;48.020;16.720;2023-04-15T14:43:58;0.28;;;0.28;;
41514;SDS011;27247;48.020;16.720;2023-04-15T14:48:09;0.20;;;0.20;;
41514;SDS011;27247;48.020;16.720;2023-04-15T14:52:21;1.50;;;0.20;;
41514;SDS011;27247;48.020;16.720;2023-04-15T14:56:31;0.43;;;0.38;;
41514;SDS011;27247;48.020;16.720;2023-04-15T15:00:42;1.80;;;0.30;;
41514;SDS011;27247;48.020;16.720;2023-04-15T15:04:53;0.20;;;0.20;;
41514;SDS011;27247;48.020;16.720;2023-04-15T15:09:03;0.20;;;0.20;;
41514;SDS011;27247;48.020;16.720;2023-04-15T15:13:14;0.73;;;0.70;;
41514;SDS011;27247;48.020;16.720;2023-04-15T15:17:25;0.20;;;0.20;;
41514;SDS011;27247;48.020;16.720;2023-04-15T15:21:35;0.47;;;0.30;;
41514;SDS011;27247;48.020;16.720;2023-04-15T15:25:46;1.60;;;0.93;;
41514;SDS011;27247;48.020;16.720;2023-04-15T15:29:57;2.17;;;1.20;;
41514;SDS011;27247;48.020;16.720;2023-04-15T15:34:08;0.50;;;0.30;;
41514;SDS011;27247;48.020;16.720;2023-04-15T15:38:18;1.23;;;1.03;;
41514;SDS011;27247;48.020;16.720;2023-04-15T15:42:30;0.85;;;0.85;;
41514;SDS011;27247;48.020;16.720;2023-04-15T15:46:41;0.60;;;0.60;;
41514;SDS011;27247;48.020;16.720;2023-04-15T15:50:51;0.70;;;0.70;;
41514;SDS011;27247;48.020;16.720;2023-04-15T15:55:02;0.60;;;0.60;;
41514;SDS011;27247;48.020;16.720;2023-04-15T15:59:14;1.70;;;1.10;;
41514;SDS011;27247;48.020;16.720;2023-04-15T16:03:24;0.98;;;0.63;;
41514;SDS011;27247;48.020;16.720;2023-04-15T16:07:34;0.50;;;0.50;;
41514;SDS011;27247;48.020;16.720;2023-04-15T16:11:45;0.75;;;0.75;;
41514;SDS011;27247;48.020;16.720;2023-04-15T16:15:55;1.67;;;0.70;;
41514;SDS011;27247;48.020;16.720;2023-04-15T16:20:06;1.25;;;1.00;;
41514;SDS011;27247;48.020;16.720;2023-04-15T16:24:17;0.57;;;0.57;;
41514;SDS011;27247;48.020;16.720;2023-04-15T16:28:27;1.98;;;1.40;;
41514;SDS011;27247;48.020;16.720;2023-04-15T16:32:37;2.13;;;0.70;;
41514;SDS011;27247;48.020;16.720;2023-04-15T16:36:48;0.40;;;0.40;;
41514;SDS011;27247;48.020;16.720;2023-04-15T16:40:59;0.95;;;0.80;;
41514;SDS011;27247;48.020;16.720;2023-04-15T16:45:10;2.70;;;0.80;;
41514;SDS011;27247;48.020;16.720;2023-04-15T16:49:20;2.80;;;1.67;;
41514;SDS011;27247;48.020;16.720;2023-04-15T16:53:31;10.90;;;3.43;;
41514;SDS011;27247;48.020;16.720;2023-04-15T16:57:41;7.70;;;4.43;;
41514;SDS011;27247;48.020;16.720;2023-04-15T17:01:52;4.82;;;3.08;;
41514;SDS011;27247;48.020;16.720;2023-04-15T17:06:03;17.10;;;9.43;;
41514;SDS011;27247;48.020;16.720;2023-04-15T17:10:13;11.68;;;6.32;;
41514;SDS011;27247;48.020;16.720;2023-04-15T17:14:24;11.35;;;5.82;;
41514;SDS011;27247;48.020;16.720;2023-04-15T17:18:34;11.55;;;5.00;;
41514;SDS011;27247;48.020;16.720;2023-04-15T17:22:45;5.80;;;3.20;;
41514;SDS011;27247;48.020;16.720;2023-04-15T17:26:55;3.13;;;1.80;;
41514;SDS011;27247;48.020;16.720;2023-04-15T17:31:05;3.60;;;2.35;;
41514;SDS011;27247;48.020;16.720;2023-04-15T17:35:16;3.17;;;2.08;;
41514;SDS011;27247;48.020;16.720;2023-04-15T17:39:27;3.78;;;2.55;;
41514;SDS011;27247;48.020;16.720;2023-04-15T17:43:38;2.83;;;1.73;;
41514;SDS011;27247;48.020;16.720;2023-04-15T17:47:48;5.22;;;3.00;;
41514;SDS011;27247;48.020;16.720;2023-04-15T17:51:59;12.70;;;4.88;;
41514;SDS011;27247;48.020;16.720;2023-04-15T17:56:10;29.75;;;13.73;;
41514;SDS011;27247;48.020;16.720;2023-04-15T18:00:21;24.83;;;11.63;;
41514;SDS011;27247;48.020;16.720;2023-04-15T18:04:32;22.77;;;11.48;;
41514;SDS011;27247;48.020;16.720;2023-04-15T18:08:43;22.92;;;11.18;;
41514;SDS011;27247;48.020;16.720;2023-04-15T18:12:53;1.25;;;1.08;;
41514;SDS011;27247;48.020;16.720;2023-04-15T18:17:04;1.85;;;1.10;;
41514;SDS011;27247;48.020;16.720;2023-04-15T18:21:14;2.00;;;0.88;;
41514;SDS011;27247;48.020;16.720;2023-04-15T18:25:25;1.58;;;0.93;;
41514;SDS011;27247;48.020;16.720;2023-04-15T18:29:36;0.73;;;0.73;;
41514;SDS011;27247;48.020;16.720;2023-04-15T18:33:47;1.83;;;0.80;;
41514;SDS011;27247;48.020;16.720;2023-04-15T18:37:57;1.50;;;0.95;;
41514;SDS011;27247;48.020;16.720;2023-04-15T18:42:08;1.37;;;0.90;;
41514;SDS011;27247;48.020;16.720;2023-04-15T18:46:18;87.03;;;25.55;;
41514;SDS011;27247;48.020;16.720;2023-04-15T18:50:29;108.78;;;33.03;;
41514;SDS011;27247;48.020;16.720;2023-04-15T18:54:39;99.30;;;32.05;;
41514;SDS011;27247;48.020;16.720;2023-04-15T18:58:50;5.88;;;3.00;;
41514;SDS011;27247;48.020;16.720;2023-04-15T19:03:01;8.00;;;3.17;;
41514;SDS011;27247;48.020;16.720;2023-04-15T19:07:12;1.38;;;0.85;;
41514;SDS011;27247;48.020;16.720;2023-04-15T19:11:22;1.50;;;0.95;;
41514;SDS011;27247;48.020;16.720;2023-04-15T19:15:33;1.52;;;1.02;;
41514;SDS011;27247;48.020;16.720;2023-04-15T19:19:43;1.40;;;0.80;;
41514;SDS011;27247;48.020;16.720;2023-04-15T19:23:54;2.53;;;1.42;;
41514;SDS011;27247;48.020;16.720;2023-04-15T19:28:06;4.40;;;2.88;;
41514;SDS011;27247;48.020;16.720;2023-04-15T19:32:16;3.70;;;2.88;;
41514;SDS011;27247;48.020;16.720;2023-04-15T19:36:27;3.70;;;2.85;;
41514;SDS011;27247;48.020;16.720;2023-04-15T19:40:37;3.78;;;2.72;;
41514;SDS011;27247;48.020;16.720;2023-04-15T19:44:48;3.73;;;2.40;;
41514;SDS011;27247;48.020;16.720;2023-04-15T19:48:58;5.00;;;3.20;;
41514;SDS011;27247;48.020;16.720;2023-04-15T19:53:10;6.85;;;4.03;;
41514;SDS011;27247;48.020;16.720;2023-04-15T19:57:20;4.68;;;3.00;;
41514;SDS011;27247;48.020;16.720;2023-04-15T20:01:31;9.73;;;6.20;;
41514;SDS011;27247;48.020;16.720;2023-04-15T20:05:41;12.68;;;7.57;;
41514;SDS011;27247;48.020;16.720;2023-04-15T20:09:51;12.23;;;7.78;;
41514;SDS011;27247;48.020;16.720;2023-04-15T20:14:02;6.07;;;4.20;;
41514;SDS011;27247;48.020;16.720;2023-04-15T20:18:14;6.72;;;4.10;;
41514;SDS011;27247;48.020;16.720;2023-04-15T20:22:24;9.45;;;5.07;;
41514;SDS011;27247;48.020;16.720;2023-04-15T20:26:35;16.45;;;8.80;;
41514;SDS011;27247;48.020;16.720;2023-04-15T20:30:45;17.02;;;8.35;;
41514;SDS011;27247;48.020;16.720;2023-04-15T20:34:56;19.13;;;8.90;;
41514;SDS011;27247;48.020;16.720;2023-04-15T20:39:06;21.92;;;9.07;;
41514;SDS011;27247;48.020;16.720;2023-04-15T20:43:17;16.57;;;7.37;;
41514;SDS011;27247;48.020;16.720;2023-04-15T20:47:27;4.30;;;3.65;;
41514;SDS011;27247;48.020;16.720;2023-04-15T20:51:38;4.53;;;3.03;;
41514;SDS011;27247;48.020;16.720;2023-04-15T20:55:49;32.13;;;16.37;;
41514;SDS011;27247;48.020;16.720;2023-04-15T20:59:59;20.00;;;9.43;;
41514;SDS011;27247;48.020;16.720;2023-04-15T21:04:09;4.63;;;3.30;;
41514;SDS011;27247;48.020;16.720;2023-04-15T21:08:20;4.40;;;2.65;;
41514;SDS011;27247;48.020;16.720;2023-04-15T21:12:38;3.90;;;2.75;;
41514;SDS011;27247;48.020;16.720;2023-04-15T21:16:49;4.43;;;2.67;;
41514;SDS011;27247;48.020;16.720;2023-04-15T21:21:00;4.70;;;2.60;;
41514;SDS011;27247;48.020;16.720;2023-04-15T21:25:11;2.22;;;1.77;;
41514;SDS011;27247;48.020;16.720;2023-04-15T21:29:21;3.33;;;1.80;;
41514;SDS011;27247;48.020;16.720;2023-04-15T21:33:32;3.83;;;1.90;;
41514;SDS011;27247;48.020;16.720;2023-04-15T21:37:42;2.23;;;1.83;;
41514;SDS011;27247;48.020;16.720;2023-04-15T21:41:53;2.03;;;1.60;;
41514;SDS011;27247;48.020;16.720;2023-04-15T21:46:03;2.50;;;2.30;;
41514;SDS011;27247;48.020;16.720;2023-04-15T21:50:13;1.55;;;1.45;;
41514;SDS011;27247;48.020;16.720;2023-04-15T21:54:24;1.55;;;1.45;;
41514;SDS011;27247;48.020;16.720;2023-04-15T21:58:34;2.17;;;1.55;;
41514;SDS011;27247;48.020;16.720;2023-04-15T22:02:45;4.47;;;1.88;;
41514;SDS011;27247;48.020;16.720;2023-04-15T22:06:55;2.50;;;1.80;;
41514;SDS011;27247;48.020;16.720;2023-04-15T22:11:16;2.85;;;2.35;;
41514;SDS011;27247;48.020;16.720;2023-04-15T22:15:29;3.17;;;2.63;;
41514;SDS011;27247;48.020;16.720;2023-04-15T22:19:40;3.70;;;3.13;;
41514;SDS011;27247;48.020;16.720;2023-04-15T22:23:51;4.78;;;3.30;;
41514;SDS011;27247;48.020;16.720;2023-04-15T22:28:02;10.77;;;5.25;;
41514;SDS011;27247;48.020;16.720;2023-04-15T22:32:15;6.30;;;4.28;;
41514;SDS011;27247;48.020;16.720;2023-04-15T22:36:26;5.03;;;3.55;;
41514;SDS011;27247;48.020;16.720;2023-04-15T22:40:37;5.82;;;3.92;;
41514;SDS011;27247;48.020;16.720;2023-04-15T22:44:48;4.27;;;3.50;;
41514;SDS011;27247;48.020;16.720;2023-04-15T22:48:59;4.68;;;3.30;;
41514;SDS011;27247;48.020;16.720;2023-04-15T22:53:09;4.38;;;3.00;;
41514;SDS011;27247;48.020;16.720;2023-04-15T22:57:20;3.47;;;2.65;;
41514;SDS011;27247;48.020;16.720;2023-04-15T23:01:30;3.50;;;3.07;;
41514;SDS011;27247;48.020;16.720;2023-04-15T23:05:41;3.63;;;3.00;;
41514;SDS011;27247;48.020;16.720;2023-04-15T23:09:51;4.20;;;2.72;;
41514;SDS011;27247;48.020;16.720;2023-04-15T23:14:01;3.63;;;2.90;;
41514;SDS011;27247;48.020;16.720;2023-04-15T23:18:12;9.53;;;5.67;;
41514;SDS011;27247;48.020;16.720;2023-04-15T23:22:22;11.00;;;7.13;;
41514;SDS011;27247;48.020;16.720;2023-04-15T23:26:32;9.93;;;6.20;;
41514;SDS011;27247;48.020;16.720;2023-04-15T23:30:43;7.87;;;5.30;;
41514;SDS011;27247;48.020;16.720;2023-04-15T23:34:53;10.50;;;7.00;;
41514;SDS011;27247;48.020;16.720;2023-04-15T23:39:03;6.97;;;5.27;;
41514;SDS011;27247;48.020;16.720;2023-04-15T23:43:14;5.47;;;4.07;;
41514;SDS011;27247;48.020;16.720;2023-04-15T23:47:24;5.17;;;3.70;;
41514;SDS011;27247;48.020;16.720;2023-04-15T23:51:36;4.70;;;3.50;;
41514;SDS011;27247;48.020;16.720;2023-04-15T23:55:47;7.57;;;4.50;;
41514;SDS011;27247;48.020;16.720;2023-04-15T23:59:58;6.40;;;4.22;;
